createdAt,value
2022-07-30T00:00:36.796Z,4.68
2022-07-30T00:03:05.035Z,4.60
2022-07-30T00:05:34.624Z,4.90
2022-07-30T00:08:02.787Z,4.88
2022-07-30T00:10:30.969Z,4.85
2022-07-30T00:12:59.134Z,4.80
2022-07-30T00:15:28.685Z,5.07
2022-07-30T00:17:56.861Z,5.00
2022-07-30T00:20:27.953Z,4.75
2022-07-30T00:22:57.849Z,5.28
2022-07-30T00:25:25.993Z,5.07
2022-07-30T00:27:56.788Z,5.05
2022-07-30T00:30:25.128Z,5.07
2022-07-30T00:32:53.407Z,5.55
2022-07-30T00:35:21.535Z,4.75
2022-07-30T00:37:49.689Z,5.07
2022-07-30T00:40:19.614Z,4.93
2022-07-30T00:42:49.457Z,4.57
2022-07-30T00:45:18.658Z,5.30
2022-07-30T00:47:47.068Z,4.90
2022-07-30T00:50:16.562Z,5.20
2022-07-30T00:52:44.907Z,5.05
2022-07-30T00:55:15.043Z,4.88
2022-07-30T00:57:45.011Z,5.10
2022-07-30T01:00:16.639Z,4.93
2022-07-30T01:02:45.017Z,4.85
2022-07-30T01:05:14.364Z,4.90
2022-07-30T01:07:42.881Z,5.18
2022-07-30T01:10:12.953Z,4.93
2022-07-30T01:12:42.041Z,4.70
2022-07-30T01:15:12.845Z,5.20
2022-07-30T01:17:41.065Z,5.00
2022-07-30T01:20:13.437Z,5.30
2022-07-30T01:22:49.000Z,5.13
2022-07-30T01:25:27.059Z,4.75
2022-07-30T01:28:00.778Z,4.78
2022-07-30T01:33:01.147Z,5.40
2022-07-30T01:35:31.912Z,5.57
2022-07-30T01:38:01.778Z,5.00
2022-07-30T01:40:30.656Z,4.82
2022-07-30T01:43:03.484Z,5.13
2022-07-30T01:45:41.471Z,4.97
2022-07-30T01:48:14.676Z,5.10
2022-07-30T01:50:48.287Z,5.35
2022-07-30T01:55:47.776Z,5.07
2022-07-30T01:58:21.582Z,5.13
2022-07-30T02:00:58.329Z,5.25
2022-07-30T02:06:02.005Z,5.10
2022-07-30T02:08:37.882Z,5.25
2022-07-30T02:11:10.353Z,5.35
2022-07-30T02:13:45.355Z,4.97
2022-07-30T02:16:18.647Z,4.90
2022-07-30T02:18:56.983Z,5.28
2022-07-30T02:21:36.349Z,5.35
2022-07-30T02:24:09.454Z,5.57
2022-07-30T02:26:39.455Z,5.32
2022-07-30T02:29:11.665Z,5.35
2022-07-30T02:31:42.936Z,5.50
2022-07-30T02:34:14.401Z,5.40
2022-07-30T02:36:44.350Z,6.00
2022-07-30T02:39:15.467Z,5.63
2022-07-30T02:41:49.686Z,5.65
2022-07-30T02:44:21.822Z,5.53
2022-07-30T02:46:52.535Z,5.70
2022-07-30T02:49:41.283Z,5.90
2022-07-30T02:52:13.661Z,5.60
2022-07-30T02:54:43.462Z,5.45
2022-07-30T02:57:12.730Z,5.57
2022-07-30T02:59:44.862Z,5.47
2022-07-30T03:02:15.186Z,5.38
2022-07-30T03:04:44.511Z,5.57
2022-07-30T03:07:18.015Z,5.82
2022-07-30T03:09:51.500Z,5.30
2022-07-30T03:12:23.019Z,5.80
2022-07-30T03:14:54.624Z,5.50
2022-07-30T03:17:25.083Z,5.50
2022-07-30T03:19:56.098Z,5.35
2022-07-30T03:22:31.310Z,5.90
2022-07-30T03:25:03.448Z,5.93
2022-07-30T03:27:33.207Z,5.95
2022-07-30T03:30:03.913Z,5.50
2022-07-30T03:32:32.759Z,5.28
2022-07-30T03:35:06.137Z,5.47
2022-07-30T03:37:36.943Z,5.65
2022-07-30T03:40:08.194Z,5.43
2022-07-30T03:42:37.244Z,5.18
2022-07-30T03:45:10.057Z,5.68
2022-07-30T03:47:42.106Z,5.53
2022-07-30T03:50:13.794Z,5.00
2022-07-30T03:52:42.963Z,4.88
2022-07-30T03:55:16.775Z,4.68
2022-07-30T03:57:51.295Z,4.80
2022-07-30T04:00:27.225Z,4.65
2022-07-30T04:02:55.504Z,4.78
2022-07-30T04:05:40.999Z,4.53
2022-07-30T04:08:12.854Z,4.78
2022-07-30T04:10:42.632Z,4.82
2022-07-30T04:13:49.535Z,4.35
2022-07-30T04:16:39.018Z,4.65
2022-07-30T04:19:17.757Z,5.15
2022-07-30T04:21:47.907Z,4.55
2022-07-30T04:24:18.865Z,5.20
2022-07-30T04:26:48.787Z,4.60
2022-07-30T04:29:22.671Z,4.53
2022-07-30T04:31:56.151Z,4.70
2022-07-30T04:34:32.998Z,4.50
2022-07-30T04:37:01.845Z,4.88
2022-07-30T04:39:30.786Z,4.15
2022-07-30T04:41:58.986Z,4.80
2022-07-30T04:44:38.026Z,5.63
2022-07-30T04:47:27.588Z,6.00
2022-07-30T04:50:17.532Z,4.68
2022-07-30T04:52:49.092Z,5.10
2022-07-30T04:55:24.611Z,4.50
2022-07-30T04:57:54.589Z,5.53
2022-07-30T05:00:25.935Z,5.30
2022-07-30T05:02:59.094Z,5.65
2022-07-30T05:05:28.132Z,5.20
2022-07-30T05:07:58.441Z,5.30
2022-07-30T05:10:28.539Z,6.00
2022-07-30T05:12:56.843Z,4.88
2022-07-30T05:15:37.399Z,5.70
2022-07-30T05:18:09.747Z,5.28
2022-07-30T05:20:41.605Z,4.70
2022-07-30T05:23:20.059Z,5.30
2022-07-30T05:25:59.552Z,5.75
2022-07-30T05:28:36.108Z,5.03
2022-07-30T05:31:09.102Z,5.30
2022-07-30T05:33:42.656Z,5.47
2022-07-30T05:36:16.671Z,5.22
2022-07-30T05:38:44.849Z,5.03
2022-07-30T05:41:36.003Z,5.40
2022-07-30T05:44:14.091Z,4.88
2022-07-30T05:46:42.692Z,4.60
2022-07-30T05:49:12.472Z,5.38
2022-07-30T05:51:41.252Z,5.28
2022-07-30T05:54:10.591Z,5.32
2022-07-30T05:57:02.293Z,5.20
2022-07-30T05:59:33.393Z,5.00
2022-07-30T06:02:10.111Z,5.95
2022-07-30T06:04:57.988Z,5.15
2022-07-30T06:07:26.358Z,5.63
2022-07-30T06:10:00.125Z,4.85
2022-07-30T06:12:29.320Z,6.05
2022-07-30T06:14:58.787Z,4.72
2022-07-30T06:17:31.281Z,5.00
2022-07-30T06:20:29.677Z,6.90
2022-07-30T06:23:24.510Z,5.22
2022-07-30T06:26:07.833Z,5.63
2022-07-30T06:28:38.727Z,6.03
2022-07-30T06:31:16.078Z,5.18
2022-07-30T06:33:44.839Z,5.03
2022-07-30T06:36:14.726Z,5.90
2022-07-30T06:38:59.878Z,5.70
2022-07-30T06:41:45.583Z,4.93
2022-07-30T06:44:15.656Z,5.05
2022-07-30T06:47:07.441Z,4.80
2022-07-30T06:49:37.447Z,4.82
2022-07-30T06:52:08.705Z,5.00
2022-07-30T06:54:37.401Z,4.72
2022-07-30T06:57:20.590Z,5.10
2022-07-30T06:59:56.287Z,5.25
2022-07-30T07:02:45.114Z,4.90
2022-07-30T07:05:15.371Z,4.70
2022-07-30T07:07:58.255Z,4.60
2022-07-30T07:10:31.545Z,5.15
2022-07-30T07:13:32.063Z,5.22
2022-07-30T07:16:03.189Z,4.90
2022-07-30T07:18:32.545Z,4.32
2022-07-30T07:21:06.337Z,4.90
2022-07-30T07:23:41.802Z,5.05
2022-07-30T07:26:24.758Z,4.85
2022-07-30T07:28:53.602Z,4.80
2022-07-30T07:32:06.430Z,14.73
2022-07-30T07:34:14.253Z,11.60
2022-07-30T07:36:45.218Z,6.75
2022-07-30T07:39:15.023Z,9.18
2022-07-30T07:41:48.959Z,7.07
2022-07-30T07:44:21.850Z,5.70
2022-07-30T07:46:50.026Z,5.00
2022-07-30T07:49:18.381Z,4.55
2022-07-30T07:51:52.497Z,4.60
2022-07-30T07:54:23.550Z,4.60
2022-07-30T07:56:56.623Z,4.20
2022-07-30T07:59:41.214Z,7.28
2022-07-30T08:02:21.487Z,7.68
2022-07-30T08:05:01.024Z,3.72
2022-07-30T08:07:49.653Z,4.07
2022-07-30T08:10:19.388Z,4.63
2022-07-30T08:12:47.503Z,13.68
2022-07-30T08:15:22.233Z,6.00
2022-07-30T08:18:10.645Z,4.10
2022-07-30T08:21:17.056Z,3.92
2022-07-30T08:23:46.223Z,6.07
2022-07-30T08:26:15.994Z,5.00
2022-07-30T08:28:45.810Z,3.65
2022-07-30T08:31:14.726Z,8.07
2022-07-30T08:33:42.933Z,5.07
2022-07-30T08:36:12.497Z,4.15
2022-07-30T08:38:40.708Z,4.95
2022-07-30T08:41:10.441Z,5.88
2022-07-30T08:43:41.530Z,3.97
2022-07-30T08:46:11.343Z,3.90
2022-07-30T08:48:57.317Z,3.53
2022-07-30T08:51:26.149Z,4.68
2022-07-30T08:54:13.019Z,4.00
2022-07-30T08:56:42.868Z,4.00
2022-07-30T08:59:12.593Z,3.58
2022-07-30T09:01:40.740Z,3.80
2022-07-30T09:04:08.924Z,3.75
2022-07-30T09:06:38.236Z,4.93
2022-07-30T09:09:07.364Z,4.15
2022-07-30T09:11:36.465Z,4.03
2022-07-30T09:14:13.650Z,5.53
2022-07-30T09:16:43.215Z,3.97
2022-07-30T09:19:17.916Z,7.80
2022-07-30T09:21:57.423Z,5.78
2022-07-30T09:24:43.974Z,4.10
2022-07-30T09:27:45.312Z,3.83
2022-07-30T09:30:47.363Z,5.35
2022-07-30T09:33:36.753Z,7.40
2022-07-30T09:36:32.983Z,7.32
2022-07-30T09:39:34.916Z,7.65
2022-07-30T09:42:23.535Z,6.88
2022-07-30T09:44:53.688Z,7.38
2022-07-30T09:47:33.841Z,7.60
2022-07-30T09:50:07.972Z,7.75
2022-07-30T09:52:36.981Z,7.53
2022-07-30T09:55:14.361Z,10.32
2022-07-30T09:57:58.877Z,12.27
2022-07-30T10:03:21.956Z,17.00
2022-07-30T10:06:33.964Z,23.40
2022-07-30T10:09:13.691Z,23.23
2022-07-30T10:11:48.602Z,23.02
2022-07-30T10:14:18.278Z,24.52
2022-07-30T10:17:00.207Z,25.48
2022-07-30T10:19:40.228Z,26.33
2022-07-30T10:22:29.424Z,27.92
2022-07-30T10:25:36.392Z,28.23
2022-07-30T10:28:24.167Z,27.58
2022-07-30T10:30:53.115Z,29.73
2022-07-30T10:33:36.418Z,29.13
2022-07-30T10:36:12.142Z,28.42
2022-07-30T10:38:46.013Z,31.15
2022-07-30T10:41:44.363Z,25.88
2022-07-30T10:44:46.814Z,24.45
2022-07-30T10:47:18.654Z,23.60
2022-07-30T10:50:11.652Z,25.55
2022-07-30T10:52:52.765Z,24.23
2022-07-30T10:55:37.003Z,26.23
2022-07-30T10:58:08.711Z,26.15
2022-07-30T11:00:58.550Z,27.30
2022-07-30T11:03:41.568Z,25.23
2022-07-30T11:06:26.950Z,20.55
2022-07-30T11:08:57.121Z,21.23
2022-07-30T11:12:01.401Z,22.52
2022-07-30T11:14:58.450Z,21.67
2022-07-30T11:18:00.221Z,21.15
2022-07-30T11:20:30.344Z,20.23
2022-07-30T11:23:14.245Z,19.65
2022-07-30T11:28:45.986Z,19.35
2022-07-30T11:31:55.609Z,16.83
2022-07-30T11:34:30.763Z,15.52
2022-07-30T11:37:21.963Z,17.08
2022-07-30T11:40:12.221Z,13.93
2022-07-30T11:42:43.690Z,14.00
2022-07-30T11:45:29.657Z,13.98
2022-07-30T11:48:01.456Z,13.50
2022-07-30T11:50:32.488Z,13.95
2022-07-30T11:53:04.124Z,12.85
2022-07-30T11:55:34.089Z,13.93
2022-07-30T11:58:04.279Z,14.18
2022-07-30T12:00:38.490Z,10.57
2022-07-30T12:03:14.691Z,9.77
2022-07-30T12:05:44.034Z,9.15
2022-07-30T12:08:35.246Z,9.48
2022-07-30T12:11:03.208Z,7.82
2022-07-30T12:13:45.346Z,7.70
2022-07-30T12:16:17.645Z,8.38
2022-07-30T12:18:46.643Z,7.75
2022-07-30T12:21:16.871Z,8.43
2022-07-30T12:23:55.281Z,7.50
2022-07-30T12:26:26.766Z,7.95
2022-07-30T12:28:56.527Z,7.32
2022-07-30T12:31:24.953Z,7.13
2022-07-30T12:33:53.307Z,6.65
2022-07-30T12:36:32.618Z,6.85
2022-07-30T12:39:03.937Z,6.95
2022-07-30T12:41:45.822Z,10.00
2022-07-30T12:44:35.860Z,6.85
2022-07-30T12:47:05.446Z,5.82
2022-07-30T12:49:37.624Z,5.28
2022-07-30T12:52:28.829Z,5.10
2022-07-30T12:55:10.367Z,5.22
2022-07-30T12:57:57.438Z,5.03
2022-07-30T13:00:27.104Z,4.50
2022-07-30T13:02:55.862Z,4.30
2022-07-30T13:05:45.355Z,3.38
2022-07-30T13:08:13.543Z,4.20
2022-07-30T13:10:58.263Z,4.68
2022-07-30T13:13:28.058Z,5.63
2022-07-30T13:16:01.329Z,3.47
2022-07-30T13:18:30.293Z,2.00
2022-07-30T13:20:58.576Z,1.60
2022-07-30T13:23:27.595Z,2.00
2022-07-30T13:25:57.855Z,1.70
2022-07-30T13:28:26.118Z,1.90
2022-07-30T13:30:54.323Z,1.70
2022-07-30T13:33:22.461Z,1.70
2022-07-30T13:35:50.643Z,1.70
2022-07-30T13:38:18.757Z,1.80
2022-07-30T13:40:47.104Z,2.17
2022-07-30T13:43:16.766Z,1.52
2022-07-30T13:45:44.903Z,2.92
2022-07-30T13:48:13.086Z,2.00
2022-07-30T13:50:41.425Z,2.58
2022-07-30T13:53:10.200Z,2.00
2022-07-30T13:55:38.796Z,2.55
2022-07-30T13:58:08.578Z,1.38
2022-07-30T14:00:38.905Z,4.68
2022-07-30T14:03:09.004Z,1.95
2022-07-30T14:05:42.042Z,1.88
2022-07-30T14:08:11.976Z,3.15
2022-07-30T14:10:41.011Z,1.48
2022-07-30T14:13:10.402Z,3.78
2022-07-30T14:15:45.455Z,1.92
2022-07-30T14:18:13.596Z,1.98
2022-07-30T14:20:45.546Z,1.10
2022-07-30T14:23:16.454Z,1.80
2022-07-30T14:25:44.749Z,1.30
2022-07-30T14:28:14.002Z,1.73
2022-07-30T14:30:42.209Z,1.40
2022-07-30T14:33:12.140Z,1.08
2022-07-30T14:35:40.374Z,0.80
2022-07-30T14:38:08.610Z,0.77
2022-07-30T14:40:36.762Z,1.02
2022-07-30T14:43:06.545Z,0.90
2022-07-30T14:45:36.525Z,1.10
2022-07-30T14:48:05.054Z,1.00
2022-07-30T14:50:46.594Z,0.90
2022-07-30T14:53:22.750Z,1.13
2022-07-30T14:55:50.930Z,1.10
2022-07-30T14:58:19.172Z,1.35
2022-07-30T15:00:48.394Z,1.45
2022-07-30T15:03:17.169Z,1.40
2022-07-30T15:05:50.300Z,1.20
2022-07-30T15:08:20.689Z,1.17
2022-07-30T15:10:49.253Z,1.63
2022-07-30T15:13:18.115Z,1.40
2022-07-30T15:15:47.781Z,1.30
2022-07-30T15:18:16.044Z,1.20
2022-07-30T15:20:44.196Z,1.55
2022-07-30T15:23:14.402Z,1.10
2022-07-30T15:25:43.081Z,1.10
2022-07-30T15:28:11.197Z,1.00
2022-07-30T15:30:39.356Z,1.20
2022-07-30T15:33:07.612Z,1.27
2022-07-30T15:35:36.780Z,1.10
2022-07-30T15:38:05.348Z,1.20
2022-07-30T15:40:34.956Z,1.70
2022-07-30T15:43:06.815Z,1.20
2022-07-30T15:45:52.317Z,1.10
2022-07-30T15:48:27.408Z,1.10
2022-07-30T15:51:02.732Z,1.10
2022-07-30T15:53:31.355Z,1.33
2022-07-30T15:56:01.623Z,1.38
2022-07-30T15:58:29.758Z,1.40
2022-07-30T16:00:58.051Z,1.50
2022-07-30T16:03:26.192Z,1.42
2022-07-30T16:05:54.431Z,1.60
2022-07-30T16:08:22.638Z,1.73
2022-07-30T16:10:51.994Z,1.55
2022-07-30T16:13:21.612Z,2.17
2022-07-30T16:15:49.893Z,3.63
2022-07-30T16:18:18.102Z,2.30
2022-07-30T16:20:46.311Z,1.95
2022-07-30T16:23:19.444Z,1.38
2022-07-30T16:25:49.385Z,1.42
2022-07-30T16:28:17.857Z,1.40
2022-07-30T16:30:50.740Z,1.70
2022-07-30T16:33:20.848Z,1.20
2022-07-30T16:35:50.955Z,1.38
2022-07-30T16:38:19.477Z,1.17
2022-07-30T16:40:47.856Z,1.30
2022-07-30T16:43:20.198Z,1.35
2022-07-30T16:45:49.982Z,1.40
2022-07-30T16:48:18.332Z,1.38
2022-07-30T16:50:46.841Z,1.30
2022-07-30T16:53:15.039Z,1.23
2022-07-30T16:55:45.981Z,1.10
2022-07-30T16:58:14.139Z,1.27
2022-07-30T17:00:42.545Z,1.50
2022-07-30T17:03:20.210Z,1.25
2022-07-30T17:05:48.868Z,3.25
2022-07-30T17:08:17.735Z,2.45
2022-07-30T17:10:46.495Z,1.40
2022-07-30T17:13:16.247Z,1.33
2022-07-30T17:15:45.592Z,1.60
2022-07-30T17:18:17.163Z,1.42
2022-07-30T17:20:45.358Z,1.67
2022-07-30T17:23:13.655Z,1.60
2022-07-30T17:25:41.807Z,1.50
2022-07-30T17:28:09.915Z,1.80
2022-07-30T17:30:38.139Z,1.58
2022-07-30T17:33:06.465Z,1.42
2022-07-30T17:35:36.004Z,1.80
2022-07-30T17:38:04.326Z,1.88
2022-07-30T17:40:34.569Z,1.90
2022-07-30T17:43:04.900Z,1.98
2022-07-30T17:45:34.445Z,1.90
2022-07-30T17:48:02.745Z,1.85
2022-07-30T17:50:32.268Z,2.10
2022-07-30T17:53:03.657Z,1.70
2022-07-30T17:55:32.108Z,2.10
2022-07-30T17:58:00.198Z,1.80
2022-07-30T18:00:28.412Z,1.95
2022-07-30T18:02:56.604Z,3.40
2022-07-30T18:05:24.742Z,2.20
2022-07-30T18:07:53.112Z,2.25
2022-07-30T18:10:22.780Z,1.80
2022-07-30T18:12:50.878Z,2.13
2022-07-30T18:15:20.319Z,2.10
2022-07-30T18:17:48.574Z,3.53
2022-07-30T18:20:17.132Z,2.08
2022-07-30T18:22:45.464Z,2.40
2022-07-30T18:25:19.094Z,2.20
2022-07-30T18:27:49.038Z,1.95
2022-07-30T18:30:17.354Z,2.40
2022-07-30T18:32:45.955Z,2.42
2022-07-30T18:35:15.389Z,2.10
2022-07-30T18:37:44.717Z,2.42
2022-07-30T18:40:14.531Z,2.28
2022-07-30T18:42:43.159Z,2.00
2022-07-30T18:45:14.123Z,2.08
2022-07-30T18:47:42.600Z,2.40
2022-07-30T18:50:11.670Z,2.30
2022-07-30T18:52:40.044Z,2.30
2022-07-30T18:55:11.324Z,2.33
2022-07-30T18:57:39.632Z,2.38
2022-07-30T19:00:35.666Z,2.10
2022-07-30T19:03:01.206Z,2.20
2022-07-30T19:05:29.720Z,2.10
2022-07-30T19:07:58.793Z,2.20
2022-07-30T19:10:28.077Z,2.60
2022-07-30T19:12:57.094Z,2.00
2022-07-30T19:15:25.689Z,2.00
2022-07-30T19:17:54.120Z,2.00
2022-07-30T19:20:24.501Z,2.47
2022-07-30T19:22:53.337Z,2.20
2022-07-30T19:25:21.631Z,2.40
2022-07-30T19:27:49.804Z,2.30
2022-07-30T19:30:18.050Z,2.80
2022-07-30T19:32:46.150Z,2.70
2022-07-30T19:35:14.565Z,2.40
2022-07-30T19:37:44.281Z,2.30
2022-07-30T19:40:13.801Z,2.67
2022-07-30T19:42:42.544Z,2.70
2022-07-30T19:45:13.055Z,2.60
2022-07-30T19:50:29.765Z,2.60
2022-07-30T19:52:59.483Z,2.50
2022-07-30T19:55:35.019Z,2.60
2022-07-30T19:58:16.060Z,2.70
2022-07-30T20:00:49.576Z,2.78
2022-07-30T20:03:25.477Z,3.22
2022-07-30T20:05:58.622Z,2.78
2022-07-30T20:08:29.596Z,2.97
2022-07-30T20:10:59.304Z,2.85
2022-07-30T20:13:44.040Z,3.00
2022-07-30T20:16:15.667Z,2.85
2022-07-30T20:18:46.029Z,2.70
2022-07-30T20:21:15.827Z,2.72
2022-07-30T20:23:46.526Z,2.90
2022-07-30T20:26:16.048Z,3.05
2022-07-30T20:28:52.559Z,3.03
2022-07-30T20:31:21.334Z,2.85
2022-07-30T20:33:50.787Z,3.35
2022-07-30T20:36:19.704Z,3.50
2022-07-30T20:38:49.457Z,4.05
2022-07-30T20:41:17.858Z,3.92
2022-07-30T20:43:52.409Z,3.63
2022-07-30T20:46:23.802Z,3.72
2022-07-30T20:48:52.797Z,4.78
2022-07-30T20:51:21.627Z,4.63
2022-07-30T20:54:03.244Z,4.28
2022-07-30T20:56:31.510Z,4.68
2022-07-30T20:58:59.661Z,4.80
2022-07-30T21:01:30.768Z,4.55
2022-07-30T21:03:59.138Z,4.70
2022-07-30T21:06:27.401Z,4.65
2022-07-30T21:08:56.799Z,4.90
2022-07-30T21:11:26.940Z,4.72
2022-07-30T21:13:55.147Z,5.00
2022-07-30T21:16:23.752Z,4.97
2022-07-30T21:18:51.884Z,5.22
2022-07-30T21:21:30.461Z,5.20
2022-07-30T21:24:12.225Z,5.50
2022-07-30T21:26:42.866Z,5.30
2022-07-30T21:29:11.733Z,5.65
2022-07-30T21:32:01.374Z,5.45
2022-07-30T21:34:30.842Z,5.70
2022-07-30T21:37:03.541Z,5.30
2022-07-30T21:39:31.741Z,5.60
2022-07-30T21:42:10.266Z,6.00
2022-07-30T21:44:38.823Z,5.22
2022-07-30T21:47:10.122Z,5.90
2022-07-30T21:49:39.273Z,5.85
2022-07-30T21:52:08.512Z,6.07
2022-07-30T21:54:48.043Z,5.78
2022-07-30T21:57:26.142Z,6.50
2022-07-30T21:59:55.487Z,6.78
2022-07-30T22:02:23.984Z,7.43
2022-07-30T22:04:52.375Z,6.45
2022-07-30T22:07:21.899Z,7.07
2022-07-30T22:09:50.425Z,7.70
2022-07-30T22:12:20.171Z,7.28
2022-07-30T22:14:49.520Z,7.43
2022-07-30T22:17:23.483Z,6.40
2022-07-30T22:20:08.729Z,7.80
2022-07-30T22:22:39.927Z,8.00
2022-07-30T22:25:09.772Z,7.40
2022-07-30T22:27:56.012Z,7.57
2022-07-30T22:30:26.792Z,7.80
2022-07-30T22:32:55.669Z,7.55
2022-07-30T22:35:32.403Z,7.38
2022-07-30T22:38:02.983Z,7.30
2022-07-30T22:40:31.468Z,8.15
2022-07-30T22:43:04.211Z,7.53
2022-07-30T22:45:48.573Z,7.13
2022-07-30T22:48:17.350Z,6.97
2022-07-30T22:50:48.516Z,7.25
2022-07-30T22:54:10.639Z,7.10
2022-07-30T22:56:14.171Z,7.75
2022-07-30T22:58:45.394Z,7.97
2022-07-30T23:01:16.950Z,7.30
2022-07-30T23:03:45.148Z,6.93
2022-07-30T23:06:16.536Z,6.85
2022-07-30T23:08:44.658Z,7.43
2022-07-30T23:11:12.779Z,6.68
2022-07-30T23:12:15.038Z,2.42
2022-07-30T23:13:40.896Z,6.40
2022-07-30T23:16:10.623Z,6.10
2022-07-30T23:18:38.790Z,6.40
2022-07-30T23:21:06.878Z,6.35
2022-07-30T23:23:35.865Z,5.75
2022-07-30T23:26:04.955Z,5.25
2022-07-30T23:28:33.198Z,5.57
2022-07-30T23:31:01.473Z,4.85
2022-07-30T23:33:31.768Z,5.07
2022-07-30T23:36:00.403Z,4.97
2022-07-30T23:38:28.881Z,4.70
2022-07-30T23:41:01.219Z,4.80
2022-07-30T23:43:29.426Z,4.80
2022-07-30T23:45:57.512Z,4.68
2022-07-30T23:48:25.664Z,4.38
2022-07-30T23:50:55.256Z,4.35
2022-07-30T23:53:23.360Z,4.80
2022-07-30T23:55:52.120Z,4.60
2022-07-30T23:58:20.452Z,4.75
